createdAt,value
2018-04-09T00:00:00.067Z,8.70
2018-04-09T00:01:00.168Z,8.80
2018-04-09T00:02:00.087Z,8.60
2018-04-09T00:03:00.131Z,8.70
2018-04-09T00:04:00.149Z,9.30
2018-04-09T00:05:00.138Z,9.20
2018-04-09T00:06:00.150Z,12.40
2018-04-09T00:07:00.203Z,9.60
2018-04-09T00:08:00.191Z,9.60
2018-04-09T00:09:00.210Z,8.80
2018-04-09T00:10:00.217Z,9.10
2018-04-09T00:11:00.244Z,9.20
2018-04-09T00:12:00.251Z,9.20
2018-04-09T00:13:00.279Z,8.90
2018-04-09T00:14:00.305Z,9.70
2018-04-09T00:15:00.302Z,9.20
2018-04-09T00:16:00.308Z,9.80
2018-04-09T00:17:00.354Z,8.90
2018-04-09T00:18:00.370Z,8.30
2018-04-09T00:19:00.360Z,8.90
2018-04-09T00:20:00.398Z,8.80
2018-04-09T00:21:00.395Z,8.70
2018-04-09T00:22:00.409Z,8.40
2018-04-09T00:23:00.430Z,8.90
2018-04-09T00:24:00.458Z,9.00
2018-04-09T00:25:00.488Z,8.70
2018-04-09T00:26:00.574Z,7.80
2018-04-09T00:27:00.498Z,6.60
2018-04-09T00:28:00.533Z,6.80
2018-04-09T00:29:00.549Z,6.50
2018-04-09T00:30:00.568Z,6.40
2018-04-09T00:31:00.673Z,7.00
2018-04-09T00:32:00.576Z,6.80
2018-04-09T00:33:00.589Z,6.00
2018-04-09T00:34:00.624Z,6.10
2018-04-09T00:35:00.621Z,6.20
2018-04-09T00:36:00.767Z,7.30
2018-04-09T00:37:00.659Z,7.30
2018-04-09T00:38:00.677Z,6.80
2018-04-09T00:39:00.700Z,7.10
2018-04-09T00:40:00.728Z,6.40
2018-04-09T00:41:00.819Z,6.10
2018-04-09T00:42:00.740Z,6.30
2018-04-09T00:43:00.786Z,6.50
2018-04-09T00:44:00.764Z,6.00
2018-04-09T00:45:00.816Z,5.80
2018-04-09T00:46:00.831Z,5.70
2018-04-09T00:47:00.817Z,6.30
2018-04-09T00:48:00.840Z,5.90
2018-04-09T00:49:00.875Z,5.30
2018-04-09T00:50:00.895Z,5.20
2018-04-09T00:51:00.888Z,5.00
2018-04-09T00:52:00.930Z,5.40
2018-04-09T00:53:00.915Z,5.40
2018-04-09T00:54:00.943Z,5.30
2018-04-09T00:55:00.952Z,5.30
2018-04-09T00:56:00.978Z,5.20
2018-04-09T00:57:00.979Z,5.20
2018-04-09T00:58:00.992Z,5.10
2018-04-09T00:59:01.012Z,5.20
2018-04-09T01:00:01.029Z,4.70
2018-04-09T01:01:01.172Z,4.40
2018-04-09T01:02:01.066Z,5.10
2018-04-09T01:03:01.178Z,4.60
2018-04-09T01:04:01.176Z,4.70
2018-04-09T01:05:01.187Z,5.20
2018-04-09T01:06:01.303Z,4.50
2018-04-09T01:07:01.241Z,4.70
2018-04-09T01:08:01.244Z,5.20
2018-04-09T01:09:01.253Z,5.00
2018-04-09T01:10:01.294Z,4.60
2018-04-09T01:11:01.216Z,5.40
2018-04-09T01:12:01.256Z,5.00
2018-04-09T01:13:01.243Z,5.00
2018-04-09T01:14:01.254Z,5.20
2018-04-09T01:15:01.297Z,6.50
2018-04-09T01:16:01.392Z,6.10
2018-04-09T01:17:01.312Z,5.10
2018-04-09T01:18:01.350Z,5.40
2018-04-09T01:19:01.338Z,6.20
2018-04-09T01:20:01.384Z,7.20
2018-04-09T01:21:01.402Z,5.90
2018-04-09T01:22:01.390Z,6.00
2018-04-09T01:23:01.410Z,6.80
2018-04-09T01:24:01.421Z,6.00
2018-04-09T01:25:01.437Z,5.80
2018-04-09T01:26:01.553Z,5.60
2018-04-09T01:27:01.493Z,4.90
2018-04-09T01:28:01.484Z,4.30
2018-04-09T01:29:34.739Z,4.70
2018-04-09T01:30:01.579Z,5.40
2018-04-09T01:31:01.738Z,7.10
2018-04-09T01:32:01.821Z,7.20
2018-04-09T01:33:01.607Z,5.90
2018-04-09T01:34:02.368Z,5.50
2018-04-09T01:35:01.660Z,5.50
2018-04-09T01:36:02.371Z,6.00
2018-04-09T01:37:02.215Z,6.00
2018-04-09T01:38:02.266Z,5.30
2018-04-09T01:39:01.707Z,5.70
2018-04-09T01:40:01.721Z,5.50
2018-04-09T01:41:02.279Z,5.90
2018-04-09T01:42:01.778Z,6.00
2018-04-09T01:43:01.771Z,6.90
2018-04-09T01:44:01.815Z,6.50
2018-04-09T01:45:01.797Z,6.30
2018-04-09T01:46:01.968Z,6.20
2018-04-09T01:47:02.376Z,6.30
2018-04-09T01:48:01.894Z,6.40
2018-04-09T01:49:02.416Z,6.20
2018-04-09T01:50:01.897Z,6.40
2018-04-09T01:51:02.490Z,6.80
2018-04-09T01:52:01.920Z,7.40
2018-04-09T01:53:01.935Z,8.20
2018-04-09T01:54:01.961Z,8.50
2018-04-09T01:55:01.962Z,7.80
2018-04-09T01:57:02.547Z,7.60
2018-04-09T01:58:02.053Z,7.00
2018-04-09T01:59:02.585Z,6.70
2018-04-09T02:00:02.051Z,7.40
2018-04-09T02:01:02.061Z,7.40
2018-04-09T02:02:02.261Z,7.50
2018-04-09T02:03:02.550Z,7.50
2018-04-09T02:04:02.666Z,7.60
2018-04-09T02:05:02.685Z,7.90
2018-04-09T02:06:02.156Z,7.70
2018-04-09T02:07:02.730Z,7.20
2018-04-09T02:08:02.199Z,8.00
2018-04-09T02:09:02.739Z,7.50
2018-04-09T02:10:02.240Z,7.60
2018-04-09T02:11:02.219Z,7.80
2018-04-09T02:12:02.838Z,9.10
2018-04-09T02:13:02.844Z,8.60
2018-04-09T02:14:02.874Z,9.10
2018-04-09T02:15:02.290Z,9.30
2018-04-09T02:16:02.340Z,9.30
2018-04-09T02:17:03.064Z,8.60
2018-04-09T02:18:02.344Z,10.00
2018-04-09T02:19:02.379Z,9.50
2018-04-09T02:20:02.381Z,9.50
2018-04-09T02:21:02.945Z,9.50
2018-04-09T02:22:02.635Z,9.40
2018-04-09T02:23:02.427Z,10.10
2018-04-09T02:24:03.038Z,10.00
2018-04-09T02:25:03.068Z,9.70
2018-04-09T02:26:02.463Z,9.40
2018-04-09T02:27:02.510Z,9.20
2018-04-09T02:28:03.082Z,9.40
2018-04-09T02:29:03.073Z,8.60
2018-04-09T02:30:03.088Z,7.50
2018-04-09T02:31:02.554Z,7.80
2018-04-09T02:32:02.575Z,8.10
2018-04-09T02:33:03.126Z,7.60
2018-04-09T02:34:02.608Z,8.00
2018-04-09T02:35:03.213Z,8.00
2018-04-09T02:36:03.173Z,8.00
2018-04-09T02:37:02.653Z,8.80
2018-04-09T02:38:03.240Z,8.60
2018-04-09T02:39:02.690Z,8.60
2018-04-09T02:40:02.692Z,9.40
2018-04-09T02:41:02.714Z,9.70
2018-04-09T02:42:02.900Z,8.90
2018-04-09T02:43:03.487Z,9.00
2018-04-09T02:44:02.770Z,9.20
2018-04-09T02:45:03.311Z,8.50
2018-04-09T02:46:02.812Z,9.40
2018-04-09T02:47:03.393Z,8.20
2018-04-09T02:48:02.847Z,8.50
2018-04-09T02:49:02.839Z,7.90
2018-04-09T02:50:02.882Z,8.70
2018-04-09T02:51:02.873Z,8.00
2018-04-09T02:52:02.913Z,7.60
2018-04-09T02:53:02.898Z,8.10
2018-04-09T02:54:02.921Z,7.90
2018-04-09T02:55:03.467Z,7.70
2018-04-09T02:56:03.538Z,7.60
2018-04-09T02:57:02.976Z,8.10
2018-04-09T02:58:02.978Z,8.40
2018-04-09T02:59:03.001Z,7.90
2018-04-09T03:00:03.549Z,8.10
2018-04-09T03:01:03.022Z,8.80
2018-04-09T03:02:03.576Z,8.70
2018-04-09T03:03:03.048Z,9.20
2018-04-09T03:04:03.619Z,9.10
2018-04-09T03:05:03.089Z,8.30
2018-04-09T03:06:03.692Z,9.00
2018-04-09T03:08:03.663Z,8.80
2018-04-09T03:09:03.158Z,8.40
2018-04-09T03:10:03.761Z,8.40
2018-04-09T03:11:03.211Z,8.30
2018-04-09T03:12:03.196Z,8.40
2018-04-09T03:13:03.765Z,8.60
2018-04-09T03:14:03.794Z,8.30
2018-04-09T03:15:03.258Z,8.30
2018-04-09T03:16:03.846Z,8.80
2018-04-09T03:17:03.312Z,8.70
2018-04-09T03:18:03.302Z,8.50
2018-04-09T03:19:03.319Z,9.00
2018-04-09T03:20:03.880Z,9.10
2018-04-09T03:21:03.352Z,9.50
2018-04-09T03:22:03.389Z,9.80
2018-04-09T03:23:04.080Z,9.10
2018-04-09T03:24:03.977Z,9.20
2018-04-09T03:25:03.401Z,9.10
2018-04-09T03:26:03.433Z,9.90
2018-04-09T03:27:03.467Z,9.20
2018-04-09T03:28:04.196Z,9.20
2018-04-09T03:29:04.054Z,8.90
2018-04-09T03:30:04.027Z,9.30
2018-04-09T03:31:03.498Z,8.80
2018-04-09T03:32:03.519Z,9.50
2018-04-09T03:33:03.691Z,8.80
2018-04-09T03:34:03.569Z,10.40
2018-04-09T03:35:04.099Z,9.00
2018-04-09T03:36:03.580Z,9.50
2018-04-09T03:37:04.151Z,9.70
2018-04-09T03:38:03.756Z,9.30
2018-04-09T03:39:04.213Z,10.10
2018-04-09T03:40:03.643Z,9.90
2018-04-09T03:41:03.676Z,9.60
2018-04-09T03:42:03.679Z,9.10
2018-04-09T03:43:04.420Z,9.70
2018-04-09T03:44:03.736Z,9.60
2018-04-09T03:45:03.750Z,9.10
2018-04-09T03:46:04.685Z,9.20
2018-04-09T03:47:03.782Z,9.40
2018-04-09T03:48:03.771Z,9.60
2018-04-09T03:49:03.786Z,9.00
2018-04-09T03:50:03.798Z,9.20
2018-04-09T03:51:03.835Z,9.40
2018-04-09T03:52:04.380Z,9.60
2018-04-09T03:53:03.950Z,8.40
2018-04-09T03:54:03.862Z,9.10
2018-04-09T03:55:03.874Z,9.80
2018-04-09T03:56:04.469Z,9.90
2018-04-09T03:57:03.933Z,9.50
2018-04-09T03:58:04.019Z,10.10
2018-04-09T03:59:03.956Z,9.90
2018-04-09T04:00:04.507Z,9.50
2018-04-09T04:01:03.990Z,9.40
2018-04-09T04:02:03.985Z,9.10
2018-04-09T04:03:04.569Z,9.20
2018-04-09T04:04:04.024Z,9.10
2018-04-09T04:05:04.602Z,9.50
2018-04-09T04:06:04.054Z,10.40
2018-04-09T04:07:04.072Z,9.50
2018-04-09T04:08:04.739Z,10.30
2018-04-09T04:09:04.144Z,10.80
2018-04-09T04:10:04.110Z,10.60
2018-04-09T04:11:04.709Z,15.30
2018-04-09T04:12:04.715Z,17.40
2018-04-09T04:13:04.173Z,24.30
2018-04-09T04:14:04.721Z,31.20
2018-04-09T04:15:04.727Z,26.90
2018-04-09T04:16:04.763Z,37.10
2018-04-09T04:17:04.241Z,40.20
2018-04-09T04:18:04.410Z,34.60
2018-04-09T04:19:04.796Z,29.30
2018-04-09T04:20:04.316Z,27.20
2018-04-09T04:21:04.300Z,19.60
2018-04-09T04:22:04.824Z,22.10
2018-04-09T04:23:04.305Z,22.20
2018-04-09T04:24:04.347Z,20.60
2018-04-09T04:25:04.569Z,21.00
2018-04-09T04:26:04.351Z,19.90
2018-04-09T04:27:04.371Z,19.20
2018-04-09T04:28:04.378Z,18.80
2018-04-09T04:29:04.430Z,16.80
2018-04-09T04:30:04.438Z,17.00
2018-04-09T04:31:04.479Z,16.50
2018-04-09T04:32:04.990Z,17.10
2018-04-09T04:33:04.583Z,15.20
2018-04-09T04:34:04.957Z,15.00
2018-04-09T04:35:05.037Z,14.00
2018-04-09T04:36:04.707Z,14.40
2018-04-09T04:37:04.529Z,14.40
2018-04-09T04:38:04.559Z,16.60
2018-04-09T04:39:04.569Z,15.40
2018-04-09T04:40:05.138Z,15.80
2018-04-09T04:41:05.120Z,16.00
2018-04-09T04:42:04.594Z,17.10
2018-04-09T04:43:04.765Z,17.10
2018-04-09T04:44:04.653Z,16.80
2018-04-09T04:45:04.649Z,16.60
2018-04-09T04:46:04.682Z,15.90
2018-04-09T04:47:05.217Z,18.20
2018-04-09T04:48:04.697Z,18.10
2018-04-09T04:49:04.726Z,19.40
2018-04-09T04:50:05.305Z,18.50
2018-04-09T04:51:04.762Z,18.50
2018-04-09T04:52:04.775Z,18.70
2018-04-09T04:53:04.769Z,18.90
2018-04-09T04:54:04.777Z,16.10
2018-04-09T04:55:04.801Z,15.70
2018-04-09T04:56:04.863Z,15.90
2018-04-09T04:57:04.844Z,15.80
2018-04-09T04:58:05.402Z,14.80
2018-04-09T04:59:04.856Z,14.40
2018-04-09T05:00:04.893Z,14.40
2018-04-09T05:01:04.878Z,14.50
2018-04-09T05:02:04.907Z,13.80
2018-04-09T05:03:05.692Z,13.60
2018-04-09T05:04:04.957Z,13.40
2018-04-09T05:05:05.533Z,13.80
2018-04-09T05:06:05.507Z,13.30
2018-04-09T05:07:04.973Z,14.10
2018-04-09T05:08:05.140Z,14.40
2018-04-09T05:09:05.593Z,13.70
2018-04-09T05:10:05.575Z,15.70
2018-04-09T05:11:05.032Z,14.40
2018-04-09T05:12:05.062Z,14.80
2018-04-09T05:13:05.366Z,14.50
2018-04-09T05:14:05.610Z,14.70
2018-04-09T05:15:05.110Z,15.10
2018-04-09T05:16:05.691Z,15.30
2018-04-09T05:17:05.127Z,16.00
2018-04-09T05:18:05.819Z,15.20
2018-04-09T05:19:05.185Z,15.60
2018-04-09T05:20:05.193Z,15.10
2018-04-09T05:21:05.735Z,14.50
2018-04-09T05:22:05.229Z,14.40
2018-04-09T05:23:05.810Z,13.50
2018-04-09T05:24:05.914Z,13.60
2018-04-09T05:25:05.241Z,13.30
2018-04-09T05:26:05.294Z,13.80
2018-04-09T05:27:05.823Z,13.60
2018-04-09T05:28:05.295Z,14.20
2018-04-09T05:29:05.514Z,14.10
2018-04-09T05:30:05.325Z,13.40
2018-04-09T05:31:05.877Z,13.40
2018-04-09T05:32:05.594Z,12.60
2018-04-09T05:33:05.908Z,13.10
2018-04-09T05:34:05.534Z,12.80
2018-04-09T05:35:05.605Z,13.10
2018-04-09T05:36:05.405Z,13.00
2018-04-09T05:37:05.440Z,13.90
2018-04-09T05:38:05.440Z,14.70
2018-04-09T05:39:05.458Z,16.80
2018-04-09T05:40:05.492Z,17.50
2018-04-09T05:41:51.432Z,16.70
2018-04-09T05:42:05.502Z,15.60
2018-04-09T05:43:05.527Z,15.60
2018-04-09T05:44:05.674Z,14.80
2018-04-09T05:45:06.100Z,15.70
2018-04-09T05:46:05.580Z,14.70
2018-04-09T05:47:05.562Z,14.70
2018-04-09T05:48:05.592Z,14.70
2018-04-09T05:49:05.604Z,13.90
2018-04-09T05:50:05.625Z,14.00
2018-04-09T05:51:06.183Z,13.50
2018-04-09T05:52:06.194Z,13.60
2018-04-09T05:53:05.697Z,13.90
2018-04-09T05:54:06.389Z,15.60
2018-04-09T05:55:06.280Z,16.10
2018-04-09T05:56:05.703Z,16.30
2018-04-09T05:57:05.736Z,16.20
2018-04-09T05:58:05.752Z,16.00
2018-04-09T05:59:05.764Z,15.90
2018-04-09T06:00:05.794Z,15.70
2018-04-09T06:01:06.364Z,15.70
2018-04-09T06:02:06.371Z,15.00
2018-04-09T06:03:05.812Z,15.40
2018-04-09T06:04:06.488Z,14.40
2018-04-09T06:05:05.845Z,14.70
2018-04-09T06:06:06.409Z,13.90
2018-04-09T06:07:05.875Z,14.20
2018-04-09T06:08:05.882Z,13.90
2018-04-09T06:09:06.049Z,13.70
2018-04-09T06:10:05.921Z,14.10
2018-04-09T06:11:05.933Z,13.10
2018-04-09T06:12:05.948Z,14.20
2018-04-09T06:13:06.510Z,13.50
2018-04-09T06:14:05.990Z,13.40
2018-04-09T06:15:06.007Z,13.70
2018-04-09T06:16:06.051Z,14.20
2018-04-09T06:17:06.033Z,14.30
2018-04-09T06:18:06.236Z,14.20
2018-04-09T06:19:06.705Z,13.90
2018-04-09T06:20:06.075Z,14.60
2018-04-09T06:21:06.082Z,13.10
2018-04-09T06:22:06.623Z,14.10
2018-04-09T06:23:06.105Z,13.50
2018-04-09T06:24:06.221Z,13.60
2018-04-09T06:25:06.148Z,13.20
2018-04-09T06:26:06.150Z,13.40
2018-04-09T06:27:06.236Z,13.00
2018-04-09T06:28:06.187Z,12.90
2018-04-09T06:29:06.215Z,13.20
2018-04-09T06:30:06.408Z,13.30
2018-04-09T06:31:06.682Z,13.00
2018-04-09T06:32:06.807Z,12.70
2018-04-09T06:33:58.640Z,13.20
2018-04-09T06:34:06.239Z,13.40
2018-04-09T06:35:06.262Z,14.10
2018-04-09T06:36:06.270Z,14.10
2018-04-09T06:37:06.283Z,13.30
2018-04-09T06:38:06.291Z,14.20
2018-04-09T06:39:06.322Z,13.30
2018-04-09T06:40:06.496Z,12.80
2018-04-09T06:41:06.339Z,13.40
2018-04-09T06:42:06.362Z,13.50
2018-04-09T06:43:06.379Z,12.90
2018-04-09T06:44:06.378Z,13.00
2018-04-09T06:45:06.497Z,13.00
2018-04-09T06:46:06.452Z,12.80
2018-04-09T06:47:06.425Z,13.00
2018-04-09T06:48:06.434Z,13.60
2018-04-09T06:49:06.455Z,13.10
2018-04-09T06:50:06.572Z,12.20
2018-04-09T06:51:06.492Z,12.50
2018-04-09T06:52:06.492Z,12.50
2018-04-09T06:53:06.530Z,12.70
2018-04-09T06:55:51.182Z,13.50
2018-04-09T06:56:51.084Z,13.70
2018-04-09T06:57:51.133Z,14.00
2018-04-09T06:58:51.113Z,13.30
2018-04-09T06:59:51.126Z,14.40
2018-04-09T07:00:51.150Z,14.20
2018-04-09T07:01:51.253Z,14.10
2018-04-09T07:02:51.186Z,14.10
2018-04-09T07:03:51.194Z,14.50
2018-04-09T07:04:51.198Z,14.80
2018-04-09T07:05:51.213Z,14.20
2018-04-09T07:06:51.326Z,15.40
2018-04-09T07:07:51.241Z,16.80
2018-04-09T07:08:51.258Z,16.00
2018-04-09T07:09:51.289Z,15.90
2018-04-09T07:10:51.288Z,15.20
2018-04-09T07:11:51.415Z,14.90
2018-04-09T07:12:51.315Z,15.40
2018-04-09T07:13:51.342Z,14.90
2018-04-09T07:14:51.342Z,15.10
2018-04-09T07:15:51.415Z,15.40
2018-04-09T07:16:51.373Z,15.80
2018-04-09T07:17:51.388Z,15.20
2018-04-09T07:18:51.408Z,15.90
2018-04-09T07:19:51.431Z,15.40
2018-04-09T07:20:51.431Z,15.20
2018-04-09T07:21:51.458Z,15.60
2018-04-09T07:22:51.463Z,16.90
2018-04-09T07:23:51.476Z,14.60
2018-04-09T07:24:51.505Z,15.40
2018-04-09T07:25:51.503Z,16.10
2018-04-09T07:26:51.527Z,16.50
2018-04-09T07:27:51.544Z,17.10
2018-04-09T07:28:51.564Z,17.40
2018-04-09T07:29:51.572Z,17.40
2018-04-09T07:30:51.589Z,17.10
2018-04-09T07:31:51.706Z,17.00
2018-04-09T07:32:51.624Z,17.60
2018-04-09T07:33:51.637Z,19.10
2018-04-09T07:34:51.639Z,19.00
2018-04-09T07:35:51.660Z,18.80
2018-04-09T07:36:51.775Z,18.90
2018-04-09T07:37:51.695Z,19.40
2018-04-09T07:38:51.698Z,18.90
2018-04-09T07:39:51.713Z,17.90
2018-04-09T07:40:51.744Z,18.10
2018-04-09T07:41:51.884Z,18.30
2018-04-09T07:42:51.762Z,18.90
2018-04-09T07:43:51.771Z,19.70
2018-04-09T07:44:51.791Z,20.20
2018-04-09T07:45:51.802Z,19.40
2018-04-09T07:46:51.912Z,20.70
2018-04-09T07:47:51.827Z,19.80
2018-04-09T07:48:51.840Z,19.00
2018-04-09T07:49:51.865Z,19.20
2018-04-09T07:50:51.873Z,18.80
2018-04-09T07:51:52.027Z,18.50
2018-04-09T07:52:51.907Z,19.30
2018-04-09T07:53:51.922Z,20.00
2018-04-09T07:54:51.933Z,18.80
2018-04-09T07:55:51.945Z,19.20
2018-04-09T07:56:52.065Z,19.70
2018-04-09T07:57:52.007Z,19.70
2018-04-09T07:58:51.997Z,19.80
2018-04-09T07:59:52.001Z,20.10
2018-04-09T08:00:52.029Z,20.80
2018-04-09T08:01:52.144Z,19.70
2018-04-09T08:02:52.046Z,19.40
2018-04-09T08:03:52.069Z,20.60
2018-04-09T08:04:52.084Z,20.10
2018-04-09T08:05:52.090Z,20.50
2018-04-09T08:06:52.116Z,20.40
2018-04-09T08:07:52.125Z,22.10
2018-04-09T08:08:52.143Z,21.40
2018-04-09T08:09:52.160Z,21.60
2018-04-09T08:10:52.177Z,21.50
2018-04-09T08:11:52.289Z,21.70
2018-04-09T08:12:52.198Z,21.70
2018-04-09T08:13:52.254Z,21.30
2018-04-09T08:14:52.232Z,22.50
2018-04-09T08:15:52.234Z,21.40
2018-04-09T08:16:52.353Z,22.80
2018-04-09T08:17:52.274Z,23.20
2018-04-09T08:18:52.282Z,24.60
2018-04-09T08:19:52.300Z,25.30
2018-04-09T08:20:52.308Z,24.70
2018-04-09T08:21:52.431Z,24.10
2018-04-09T08:22:52.349Z,25.60
2018-04-09T08:23:52.353Z,25.20
2018-04-09T08:24:52.375Z,23.40
2018-04-09T08:25:52.387Z,23.60
2018-04-09T08:26:52.498Z,23.20
2018-04-09T08:27:52.419Z,22.60
2018-04-09T08:28:52.424Z,21.90
2018-04-09T08:29:52.442Z,21.60
2018-04-09T08:30:52.465Z,21.60
2018-04-09T08:31:52.481Z,22.00
2018-04-09T08:32:52.482Z,20.50
2018-04-09T08:33:52.509Z,21.40
2018-04-09T08:34:52.507Z,21.70
2018-04-09T08:35:52.526Z,21.60
2018-04-09T08:36:52.654Z,22.70
2018-04-09T08:37:52.559Z,22.10
2018-04-09T08:38:52.569Z,22.30
2018-04-09T08:39:52.592Z,22.20
2018-04-09T08:40:52.622Z,22.70
2018-04-09T08:41:52.722Z,23.20
2018-04-09T08:42:52.633Z,22.20
2018-04-09T08:43:52.638Z,23.70
2018-04-09T08:44:52.668Z,23.20
2018-04-09T08:45:52.678Z,23.90
2018-04-09T08:46:52.689Z,22.80
2018-04-09T08:47:52.707Z,21.90
2018-04-09T08:48:52.727Z,23.80
2018-04-09T08:49:52.729Z,22.30
2018-04-09T08:50:52.758Z,22.10
2018-04-09T08:51:52.761Z,22.10
2018-04-09T08:52:52.770Z,22.40
2018-04-09T08:53:52.816Z,22.80
2018-04-09T08:54:52.826Z,22.70
2018-04-09T08:55:52.816Z,22.50
2018-04-09T08:56:52.834Z,22.30
2018-04-09T08:57:52.847Z,22.30
2018-04-09T08:58:52.889Z,23.50
2018-04-09T08:59:52.904Z,23.10
2018-04-09T09:00:52.914Z,24.50
2018-04-09T09:01:52.902Z,24.50
2018-04-09T09:02:52.949Z,23.40
2018-04-09T09:03:52.931Z,24.40
2018-04-09T09:04:52.948Z,27.20
2018-04-09T09:05:52.985Z,27.80
2018-04-09T09:06:53.083Z,34.40
2018-04-09T09:07:52.990Z,28.70
2018-04-09T09:08:53.016Z,28.30
2018-04-09T09:09:53.023Z,27.10
2018-04-09T09:10:53.062Z,29.60
2018-04-09T09:11:53.142Z,30.60
2018-04-09T09:12:53.088Z,29.30
2018-04-09T09:13:53.077Z,27.70
2018-04-09T09:14:53.093Z,26.80
2018-04-09T09:15:53.104Z,25.80
2018-04-09T09:16:53.145Z,24.60
2018-04-09T09:17:53.259Z,25.60
2018-04-09T09:18:53.174Z,25.40
2018-04-09T09:19:53.166Z,26.00
2018-04-09T09:20:53.209Z,25.10
2018-04-09T09:21:53.193Z,27.00
2018-04-09T09:22:53.309Z,25.80
2018-04-09T09:23:53.224Z,26.10
2018-04-09T09:24:53.239Z,25.70
2018-04-09T09:25:53.251Z,26.60
2018-04-09T09:26:53.270Z,25.60
2018-04-09T09:27:53.457Z,25.30
2018-04-09T09:28:53.307Z,25.80
2018-04-09T09:29:53.340Z,26.10
2018-04-09T09:30:53.318Z,27.50
2018-04-09T09:31:53.352Z,25.70
2018-04-09T09:32:53.479Z,26.00
2018-04-09T09:33:53.365Z,25.10
2018-04-09T09:34:53.388Z,25.20
2018-04-09T09:35:53.393Z,26.10
2018-04-09T09:36:53.408Z,25.60
2018-04-09T09:37:53.531Z,25.90
2018-04-09T09:38:53.451Z,25.90
2018-04-09T09:39:53.452Z,26.30
2018-04-09T09:40:53.482Z,26.40
2018-04-09T09:41:53.514Z,24.40
2018-04-09T09:42:53.622Z,25.40
2018-04-09T09:43:53.513Z,24.50
2018-04-09T09:44:53.543Z,25.50
2018-04-09T09:45:53.569Z,22.40
2018-04-09T09:46:53.584Z,23.60
2018-04-09T09:47:53.697Z,22.20
2018-04-09T09:48:53.586Z,21.50
2018-04-09T09:49:53.628Z,21.30
2018-04-09T09:50:53.641Z,21.50
2018-04-09T09:51:53.628Z,21.70
2018-04-09T09:52:53.653Z,21.20
2018-04-09T09:53:53.687Z,21.70
2018-04-09T09:54:53.701Z,21.00
2018-04-09T09:55:53.711Z,21.50
2018-04-09T09:56:53.713Z,22.00
2018-04-09T09:57:53.816Z,22.10
2018-04-09T09:58:53.742Z,21.70
2018-04-09T09:59:53.804Z,21.60
2018-04-09T10:00:53.772Z,21.20
2018-04-09T10:01:53.779Z,20.90
2018-04-09T10:02:53.899Z,21.50
2018-04-09T10:03:53.805Z,20.70
2018-04-09T10:04:53.829Z,21.20
2018-04-09T10:05:53.864Z,21.20
2018-04-09T10:06:53.853Z,22.40
2018-04-09T10:07:53.895Z,21.10
2018-04-09T10:08:53.884Z,20.60
2018-04-09T10:09:53.899Z,19.50
2018-04-09T10:10:53.910Z,20.40
2018-04-09T10:11:53.929Z,19.70
2018-04-09T10:12:54.043Z,19.40
2018-04-09T10:13:53.989Z,18.80
2018-04-09T10:14:53.972Z,18.70
2018-04-09T10:15:53.989Z,19.00
2018-04-09T10:16:54.013Z,20.00
2018-04-09T10:17:54.027Z,20.80
2018-04-09T10:18:54.057Z,22.60
2018-04-09T10:19:54.050Z,20.00
2018-04-09T10:20:54.064Z,20.00
2018-04-09T10:21:54.110Z,20.30
2018-04-09T10:22:54.112Z,21.00
2018-04-09T10:23:54.111Z,20.20
2018-04-09T10:24:54.126Z,20.40
2018-04-09T10:25:54.243Z,20.10
2018-04-09T10:26:54.160Z,20.90
2018-04-09T10:27:54.306Z,19.80
2018-04-09T10:28:54.201Z,20.70
2018-04-09T10:29:54.211Z,20.90
2018-04-09T10:30:54.224Z,20.60
2018-04-09T10:31:54.270Z,20.10
2018-04-09T10:32:54.357Z,20.80
2018-04-09T10:33:54.301Z,20.70
2018-04-09T10:34:54.292Z,19.50
2018-04-09T10:35:54.303Z,20.10
2018-04-09T10:36:54.319Z,20.80
2018-04-09T10:37:54.516Z,19.30
2018-04-09T10:38:54.346Z,19.80
2018-04-09T10:39:54.379Z,20.40
2018-04-09T10:40:54.383Z,18.70
2018-04-09T10:41:54.404Z,18.40
2018-04-09T10:42:54.516Z,18.70
2018-04-09T10:43:54.454Z,19.00
2018-04-09T10:44:54.448Z,18.20
2018-04-09T10:45:54.491Z,17.70
2018-04-09T10:46:54.476Z,18.00
2018-04-09T10:47:54.618Z,17.60
2018-04-09T10:48:54.534Z,18.30
2018-04-09T10:49:54.555Z,18.50
2018-04-09T10:50:54.542Z,19.00
2018-04-09T10:51:54.559Z,17.80
2018-04-09T10:52:54.673Z,18.00
2018-04-09T10:53:54.615Z,18.90
2018-04-09T10:54:54.632Z,17.70
2018-04-09T10:55:54.629Z,18.80
2018-04-09T10:56:54.650Z,19.90
2018-04-09T10:57:54.759Z,18.60
2018-04-09T10:58:54.666Z,20.90
2018-04-09T10:59:54.690Z,17.30
2018-04-09T11:00:54.706Z,17.50
2018-04-09T11:01:54.720Z,16.70
2018-04-09T11:02:54.760Z,17.00
2018-04-09T11:03:54.759Z,17.10
2018-04-09T11:04:54.795Z,18.80
2018-04-09T11:05:54.814Z,17.80
2018-04-09T11:06:54.826Z,17.70
2018-04-09T11:07:54.946Z,17.10
2018-04-09T11:08:54.843Z,16.50
2018-04-09T11:09:54.881Z,16.00
2018-04-09T11:10:54.870Z,17.00
2018-04-09T11:11:54.880Z,16.00
2018-04-09T11:12:55.002Z,17.00
2018-04-09T11:13:54.944Z,17.70
2018-04-09T11:14:54.935Z,18.30
2018-04-09T11:15:54.979Z,20.20
2018-04-09T11:16:54.998Z,20.30
2018-04-09T11:17:55.098Z,21.30
2018-04-09T11:18:55.012Z,19.70
2018-04-09T11:19:55.018Z,18.50
2018-04-09T11:20:55.067Z,19.00
2018-04-09T11:21:55.063Z,19.80
2018-04-09T11:22:55.072Z,18.80
2018-04-09T11:23:55.091Z,18.50
2018-04-09T11:24:55.131Z,18.20
2018-04-09T11:25:55.152Z,18.50
2018-04-09T11:26:55.147Z,18.10
2018-04-09T11:27:55.154Z,20.00
2018-04-09T11:28:55.285Z,19.60
2018-04-09T11:29:55.220Z,19.70
2018-04-09T11:30:55.215Z,19.50
2018-04-09T11:31:55.231Z,19.20
2018-04-09T11:32:55.244Z,19.20
2018-04-09T11:33:55.359Z,18.70
2018-04-09T11:34:55.340Z,18.80
2018-04-09T11:35:55.323Z,18.50
2018-04-09T11:36:55.345Z,19.70
2018-04-09T11:37:55.346Z,18.90
2018-04-09T11:38:55.379Z,20.50
2018-04-09T11:39:55.371Z,18.60
2018-04-09T11:40:55.418Z,18.30
2018-04-09T11:41:55.471Z,16.60
2018-04-09T11:42:55.456Z,18.10
2018-04-09T11:43:55.553Z,16.60
2018-04-09T11:44:55.465Z,17.40
2018-04-09T11:45:55.481Z,17.40
2018-04-09T11:46:55.490Z,16.90
2018-04-09T11:47:55.540Z,14.20
2018-04-09T11:48:55.633Z,17.00
2018-04-09T11:49:55.575Z,14.90
2018-04-09T11:50:55.592Z,15.30
2018-04-09T11:51:55.664Z,13.50
2018-04-09T11:52:55.627Z,14.50
2018-04-09T11:53:55.614Z,15.10
2018-04-09T11:54:55.660Z,14.80
2018-04-09T11:55:55.685Z,14.30
2018-04-09T11:56:55.674Z,13.60
2018-04-09T11:58:36.479Z,13.10
2018-04-09T11:59:36.691Z,12.20
2018-04-09T12:00:36.479Z,10.50
2018-04-09T12:01:36.504Z,10.80
2018-04-09T12:02:36.538Z,11.20
2018-04-09T12:03:36.535Z,10.70
2018-04-09T12:04:36.553Z,10.00
2018-04-09T12:05:36.573Z,9.20
2018-04-09T12:06:36.613Z,8.70
2018-04-09T12:07:36.606Z,9.30
2018-04-09T12:08:36.643Z,9.20
2018-04-09T12:09:36.787Z,9.20
2018-04-09T12:10:36.683Z,10.00
2018-04-09T12:11:36.672Z,10.00
2018-04-09T12:12:36.707Z,9.40
2018-04-09T12:13:36.721Z,10.20
2018-04-09T12:14:36.876Z,10.20
2018-04-09T12:15:36.799Z,9.50
2018-04-09T12:16:36.788Z,9.40
2018-04-09T12:17:36.793Z,9.90
2018-04-09T12:18:36.825Z,10.70
2018-04-09T12:19:36.850Z,10.70
2018-04-09T12:20:36.852Z,9.70
2018-04-09T12:21:36.882Z,9.10
2018-04-09T12:22:36.883Z,9.70
2018-04-09T12:23:36.920Z,10.10
2018-04-09T12:24:37.042Z,13.30
2018-04-09T12:25:36.925Z,17.50
2018-04-09T12:26:36.962Z,14.40
2018-04-09T12:27:36.958Z,12.40
2018-04-09T12:28:36.985Z,13.70
2018-04-09T12:29:37.068Z,13.30
2018-04-09T12:30:37.050Z,12.90
2018-04-09T12:31:37.056Z,10.60
2018-04-09T12:32:37.069Z,9.00
2018-04-09T12:33:37.090Z,9.00
2018-04-09T12:34:37.103Z,8.70
2018-04-09T12:35:37.143Z,8.90
2018-04-09T12:36:37.133Z,8.40
2018-04-09T12:37:37.162Z,7.80
2018-04-09T12:38:37.180Z,7.30
2018-04-09T12:39:37.332Z,8.70
2018-04-09T12:40:37.219Z,9.10
2018-04-09T12:41:37.253Z,8.50
2018-04-09T12:42:37.246Z,8.40
2018-04-09T12:43:37.269Z,8.80
2018-04-09T12:44:37.401Z,8.00
2018-04-09T12:45:37.332Z,8.70
2018-04-09T12:46:37.347Z,10.30
2018-04-09T12:47:37.350Z,10.50
2018-04-09T12:48:37.365Z,8.10
2018-04-09T12:49:37.532Z,7.70
2018-04-09T12:50:37.401Z,7.20
2018-04-09T12:51:37.420Z,7.30
2018-04-09T12:52:37.468Z,8.40
2018-04-09T12:53:37.469Z,7.70
2018-04-09T12:54:37.619Z,7.60
2018-04-09T12:55:37.493Z,8.60
2018-04-09T12:56:37.518Z,8.60
2018-04-09T12:57:37.565Z,10.00
2018-04-09T12:58:37.548Z,10.30
2018-04-09T12:59:37.716Z,9.80
2018-04-09T13:00:37.617Z,10.60
2018-04-09T13:01:37.609Z,10.50
2018-04-09T13:02:37.635Z,10.70
2018-04-09T13:03:37.653Z,11.40
2018-04-09T13:04:37.854Z,11.40
2018-04-09T13:05:37.715Z,11.50